sensor_id;sensor_type;location;lat;lon;timestamp;P1;durP1;ratioP1;P2;durP2;ratioP2
62543;SDS011;48597;49.030;1.822;2022-12-20T00:00:16;1.30;;;1.05;;
62543;SDS011;48597;49.030;1.822;2022-12-20T00:02:42;2.00;;;1.20;;
62543;SDS011;48597;49.030;1.822;2022-12-20T00:05:07;3.10;;;1.40;;
62543;SDS011;48597;49.030;1.822;2022-12-20T00:07:33;2.15;;;1.08;;
62543;SDS011;48597;49.030;1.822;2022-12-20T00:09:58;1.80;;;1.30;;
62543;SDS011;48597;49.030;1.822;2022-12-20T00:12:24;1.75;;;1.15;;
62543;SDS011;48597;49.030;1.822;2022-12-20T00:14:49;2.03;;;1.15;;
62543;SDS011;48597;49.030;1.822;2022-12-20T00:17:15;1.45;;;1.20;;
62543;SDS011;48597;49.030;1.822;2022-12-20T00:19:42;1.65;;;1.10;;
62543;SDS011;48597;49.030;1.822;2022-12-20T00:22:08;2.42;;;1.02;;
62543;SDS011;48597;49.030;1.822;2022-12-20T00:24:33;1.65;;;1.10;;
62543;SDS011;48597;49.030;1.822;2022-12-20T00:27:00;1.50;;;1.15;;
62543;SDS011;48597;49.030;1.822;2022-12-20T00:29:26;1.50;;;1.10;;
62543;SDS011;48597;49.030;1.822;2022-12-20T00:31:51;1.48;;;1.02;;
62543;SDS011;48597;49.030;1.822;2022-12-20T00:34:17;1.70;;;1.00;;
62543;SDS011;48597;49.030;1.822;2022-12-20T00:36:42;1.40;;;1.10;;
62543;SDS011;48597;49.030;1.822;2022-12-20T00:39:08;1.90;;;1.00;;
62543;SDS011;48597;49.030;1.822;2022-12-20T00:41:33;1.88;;;1.08;;
62543;SDS011;48597;49.030;1.822;2022-12-20T00:43:59;1.75;;;1.27;;
62543;SDS011;48597;49.030;1.822;2022-12-20T00:46:25;1.35;;;1.20;;
62543;SDS011;48597;49.030;1.822;2022-12-20T00:48:50;1.20;;;1.10;;
62543;SDS011;48597;49.030;1.822;2022-12-20T00:51:19;1.80;;;1.20;;
62543;SDS011;48597;49.030;1.822;2022-12-20T00:53:46;2.80;;;1.00;;
62543;SDS011;48597;49.030;1.822;2022-12-20T00:56:12;1.45;;;1.20;;
62543;SDS011;48597;49.030;1.822;2022-12-20T00:58:39;2.28;;;1.13;;
62543;SDS011;48597;49.030;1.822;2022-12-20T01:01:13;1.85;;;1.00;;
62543;SDS011;48597;49.030;1.822;2022-12-20T01:03:43;2.03;;;1.10;;
62543;SDS011;48597;49.030;1.822;2022-12-20T01:06:09;1.20;;;1.00;;
62543;SDS011;48597;49.030;1.822;2022-12-20T01:08:35;1.45;;;1.17;;
62543;SDS011;48597;49.030;1.822;2022-12-20T01:13:40;1.85;;;1.02;;
62543;SDS011;48597;49.030;1.822;2022-12-20T01:16:12;1.23;;;1.00;;
62543;SDS011;48597;49.030;1.822;2022-12-20T01:18:38;1.83;;;1.13;;
62543;SDS011;48597;49.030;1.822;2022-12-20T01:21:05;1.52;;;1.00;;
62543;SDS011;48597;49.030;1.822;2022-12-20T01:23:33;2.38;;;1.00;;
62543;SDS011;48597;49.030;1.822;2022-12-20T01:25:59;1.20;;;0.90;;
62543;SDS011;48597;49.030;1.822;2022-12-20T01:28:25;1.48;;;1.20;;
62543;SDS011;48597;49.030;1.822;2022-12-20T01:30:51;1.60;;;1.05;;
62543;SDS011;48597;49.030;1.822;2022-12-20T01:33:16;1.30;;;1.00;;
62543;SDS011;48597;49.030;1.822;2022-12-20T01:35:42;1.35;;;1.17;;
62543;SDS011;48597;49.030;1.822;2022-12-20T01:38:18;1.35;;;0.90;;
62543;SDS011;48597;49.030;1.822;2022-12-20T01:40:43;1.25;;;1.10;;
62543;SDS011;48597;49.030;1.822;2022-12-20T01:43:10;1.25;;;1.00;;
62543;SDS011;48597;49.030;1.822;2022-12-20T01:45:38;1.00;;;0.90;;
62543;SDS011;48597;49.030;1.822;2022-12-20T01:48:04;1.40;;;1.10;;
62543;SDS011;48597;49.030;1.822;2022-12-20T01:50:30;1.10;;;0.93;;
62543;SDS011;48597;49.030;1.822;2022-12-20T01:52:55;1.65;;;1.15;;
62543;SDS011;48597;49.030;1.822;2022-12-20T01:55:23;1.10;;;0.85;;
62543;SDS011;48597;49.030;1.822;2022-12-20T02:00:28;1.58;;;1.10;;
62543;SDS011;48597;49.030;1.822;2022-12-20T02:02:54;1.27;;;1.10;;
62543;SDS011;48597;49.030;1.822;2022-12-20T02:05:24;1.60;;;1.10;;
62543;SDS011;48597;49.030;1.822;2022-12-20T02:07:50;1.45;;;0.98;;
62543;SDS011;48597;49.030;1.822;2022-12-20T02:10:18;0.93;;;0.88;;
62543;SDS011;48597;49.030;1.822;2022-12-20T02:12:46;1.33;;;1.05;;
62543;SDS011;48597;49.030;1.822;2022-12-20T02:15:21;1.10;;;0.90;;
62543;SDS011;48597;49.030;1.822;2022-12-20T02:18:13;1.83;;;1.10;;
62543;SDS011;48597;49.030;1.822;2022-12-20T02:26:11;1.00;;;0.90;;
62543;SDS011;48597;49.030;1.822;2022-12-20T02:29:30;1.30;;;0.90;;
62543;SDS011;48597;49.030;1.822;2022-12-20T02:32:09;1.35;;;1.05;;
62543;SDS011;48597;49.030;1.822;2022-12-20T02:34:40;1.08;;;0.90;;
62543;SDS011;48597;49.030;1.822;2022-12-20T02:37:07;1.23;;;0.90;;
62543;SDS011;48597;49.030;1.822;2022-12-20T02:39:33;1.10;;;1.00;;
62543;SDS011;48597;49.030;1.822;2022-12-20T02:42:05;1.17;;;1.00;;
62543;SDS011;48597;49.030;1.822;2022-12-20T02:44:34;1.23;;;1.00;;
62543;SDS011;48597;49.030;1.822;2022-12-20T02:47:25;1.10;;;0.90;;
62543;SDS011;48597;49.030;1.822;2022-12-20T02:49:55;1.05;;;0.70;;
62543;SDS011;48597;49.030;1.822;2022-12-20T02:52:22;1.10;;;0.90;;
62543;SDS011;48597;49.030;1.822;2022-12-20T02:54:54;1.30;;;0.90;;
62543;SDS011;48597;49.030;1.822;2022-12-20T03:02:28;1.42;;;1.00;;
62543;SDS011;48597;49.030;1.822;2022-12-20T03:05:14;0.90;;;0.85;;
62543;SDS011;48597;49.030;1.822;2022-12-20T03:07:40;1.55;;;0.95;;
62543;SDS011;48597;49.030;1.822;2022-12-20T03:10:06;1.20;;;0.90;;
62543;SDS011;48597;49.030;1.822;2022-12-20T03:12:31;1.02;;;0.90;;
62543;SDS011;48597;49.030;1.822;2022-12-20T03:14:57;0.80;;;0.80;;
62543;SDS011;48597;49.030;1.822;2022-12-20T03:17:22;1.27;;;0.90;;
62543;SDS011;48597;49.030;1.822;2022-12-20T03:19:48;1.10;;;0.98;;
62543;SDS011;48597;49.030;1.822;2022-12-20T03:22:13;1.50;;;1.00;;
62543;SDS011;48597;49.030;1.822;2022-12-20T03:24:39;1.75;;;1.00;;
62543;SDS011;48597;49.030;1.822;2022-12-20T03:27:04;1.20;;;0.82;;
62543;SDS011;48597;49.030;1.822;2022-12-20T03:29:30;1.42;;;0.85;;
62543;SDS011;48597;49.030;1.822;2022-12-20T03:31:56;1.70;;;1.10;;
62543;SDS011;48597;49.030;1.822;2022-12-20T03:34:21;0.93;;;0.90;;
62543;SDS011;48597;49.030;1.822;2022-12-20T03:36:46;1.15;;;0.80;;
62543;SDS011;48597;49.030;1.822;2022-12-20T03:39:12;1.52;;;0.80;;
62543;SDS011;48597;49.030;1.822;2022-12-20T03:41:40;1.30;;;1.20;;
62543;SDS011;48597;49.030;1.822;2022-12-20T03:44:05;1.00;;;0.90;;
62543;SDS011;48597;49.030;1.822;2022-12-20T03:46:31;1.67;;;0.82;;
62543;SDS011;48597;49.030;1.822;2022-12-20T03:48:56;0.70;;;0.70;;
62543;SDS011;48597;49.030;1.822;2022-12-20T03:51:21;0.90;;;0.73;;
62543;SDS011;48597;49.030;1.822;2022-12-20T03:53:47;1.55;;;0.90;;
62543;SDS011;48597;49.030;1.822;2022-12-20T03:56:13;0.90;;;0.90;;
62543;SDS011;48597;49.030;1.822;2022-12-20T03:58:39;1.00;;;0.90;;
62543;SDS011;48597;49.030;1.822;2022-12-20T04:03:44;1.10;;;1.00;;
62543;SDS011;48597;49.030;1.822;2022-12-20T04:06:10;0.85;;;0.80;;
62543;SDS011;48597;49.030;1.822;2022-12-20T04:08:35;0.90;;;0.90;;
62543;SDS011;48597;49.030;1.822;2022-12-20T04:11:01;0.80;;;0.70;;
62543;SDS011;48597;49.030;1.822;2022-12-20T04:13:43;1.05;;;0.73;;
62543;SDS011;48597;49.030;1.822;2022-12-20T04:16:10;0.80;;;0.80;;
62543;SDS011;48597;49.030;1.822;2022-12-20T04:18:36;0.70;;;0.70;;
62543;SDS011;48597;49.030;1.822;2022-12-20T04:21:02;1.08;;;0.90;;
62543;SDS011;48597;49.030;1.822;2022-12-20T04:23:28;0.80;;;0.80;;
62543;SDS011;48597;49.030;1.822;2022-12-20T04:25:54;0.88;;;0.80;;
62543;SDS011;48597;49.030;1.822;2022-12-20T04:28:19;1.25;;;0.75;;
62543;SDS011;48597;49.030;1.822;2022-12-20T04:30:45;1.48;;;0.70;;
62543;SDS011;48597;49.030;1.822;2022-12-20T04:33:10;1.08;;;0.70;;
62543;SDS011;48597;49.030;1.822;2022-12-20T04:35:36;1.48;;;0.90;;
62543;SDS011;48597;49.030;1.822;2022-12-20T04:38:01;0.70;;;0.70;;
62543;SDS011;48597;49.030;1.822;2022-12-20T04:40:27;0.70;;;0.70;;
62543;SDS011;48597;49.030;1.822;2022-12-20T04:42:53;1.00;;;0.90;;
62543;SDS011;48597;49.030;1.822;2022-12-20T04:45:18;0.73;;;0.73;;
62543;SDS011;48597;49.030;1.822;2022-12-20T04:47:44;1.85;;;1.00;;
62543;SDS011;48597;49.030;1.822;2022-12-20T04:50:10;0.73;;;0.73;;
62543;SDS011;48597;49.030;1.822;2022-12-20T04:52:36;0.95;;;0.70;;
62543;SDS011;48597;49.030;1.822;2022-12-20T04:55:21;0.80;;;0.70;;
62543;SDS011;48597;49.030;1.822;2022-12-20T04:57:47;1.08;;;0.70;;
62543;SDS011;48597;49.030;1.822;2022-12-20T05:00:13;1.25;;;0.85;;
62543;SDS011;48597;49.030;1.822;2022-12-20T05:02:40;1.13;;;0.75;;
62543;SDS011;48597;49.030;1.822;2022-12-20T05:05:06;0.65;;;0.65;;
62543;SDS011;48597;49.030;1.822;2022-12-20T05:07:33;0.80;;;0.70;;
62543;SDS011;48597;49.030;1.822;2022-12-20T05:09:58;1.00;;;0.70;;
62543;SDS011;48597;49.030;1.822;2022-12-20T05:12:23;0.60;;;0.55;;
62543;SDS011;48597;49.030;1.822;2022-12-20T05:14:49;0.85;;;0.77;;
62543;SDS011;48597;49.030;1.822;2022-12-20T05:17:16;0.75;;;0.65;;
62543;SDS011;48597;49.030;1.822;2022-12-20T05:19:41;1.17;;;0.70;;
62543;SDS011;48597;49.030;1.822;2022-12-20T05:22:08;0.68;;;0.68;;
62543;SDS011;48597;49.030;1.822;2022-12-20T05:24:54;1.58;;;1.00;;
62543;SDS011;48597;49.030;1.822;2022-12-20T05:27:38;0.80;;;0.80;;
62543;SDS011;48597;49.030;1.822;2022-12-20T05:30:03;0.75;;;0.70;;
62543;SDS011;48597;49.030;1.822;2022-12-20T05:32:29;2.28;;;0.70;;
62543;SDS011;48597;49.030;1.822;2022-12-20T05:34:56;0.70;;;0.70;;
62543;SDS011;48597;49.030;1.822;2022-12-20T05:37:22;0.95;;;0.70;;
62543;SDS011;48597;49.030;1.822;2022-12-20T05:39:47;0.80;;;0.80;;
62543;SDS011;48597;49.030;1.822;2022-12-20T05:42:12;1.00;;;0.85;;
62543;SDS011;48597;49.030;1.822;2022-12-20T05:44:38;0.88;;;0.77;;
62543;SDS011;48597;49.030;1.822;2022-12-20T05:47:03;2.45;;;0.80;;
62543;SDS011;48597;49.030;1.822;2022-12-20T05:49:29;0.75;;;0.75;;
62543;SDS011;48597;49.030;1.822;2022-12-20T05:51:54;1.13;;;0.80;;
62543;SDS011;48597;49.030;1.822;2022-12-20T05:54:20;0.80;;;0.80;;
62543;SDS011;48597;49.030;1.822;2022-12-20T05:56:45;1.60;;;0.80;;
62543;SDS011;48597;49.030;1.822;2022-12-20T05:59:11;0.90;;;0.70;;
62543;SDS011;48597;49.030;1.822;2022-12-20T06:01:36;1.02;;;0.80;;
62543;SDS011;48597;49.030;1.822;2022-12-20T06:04:02;1.67;;;0.90;;
62543;SDS011;48597;49.030;1.822;2022-12-20T06:06:28;0.70;;;0.70;;
62543;SDS011;48597;49.030;1.822;2022-12-20T06:08:53;1.17;;;0.80;;
62543;SDS011;48597;49.030;1.822;2022-12-20T06:11:20;1.00;;;0.65;;
62543;SDS011;48597;49.030;1.822;2022-12-20T06:13:45;1.85;;;0.70;;
62543;SDS011;48597;49.030;1.822;2022-12-20T06:16:11;1.50;;;0.73;;
62543;SDS011;48597;49.030;1.822;2022-12-20T06:18:36;1.23;;;0.90;;
62543;SDS011;48597;49.030;1.822;2022-12-20T06:21:01;0.70;;;0.70;;
62543;SDS011;48597;49.030;1.822;2022-12-20T06:23:27;0.70;;;0.70;;
62543;SDS011;48597;49.030;1.822;2022-12-20T06:25:52;1.60;;;0.90;;
62543;SDS011;48597;49.030;1.822;2022-12-20T06:28:19;0.95;;;0.80;;
62543;SDS011;48597;49.030;1.822;2022-12-20T06:30:52;1.13;;;0.75;;
62543;SDS011;48597;49.030;1.822;2022-12-20T06:33:19;0.80;;;0.70;;
62543;SDS011;48597;49.030;1.822;2022-12-20T06:35:44;0.60;;;0.60;;
62543;SDS011;48597;49.030;1.822;2022-12-20T06:38:09;0.98;;;0.80;;
62543;SDS011;48597;49.030;1.822;2022-12-20T06:40:37;1.10;;;0.70;;
62543;SDS011;48597;49.030;1.822;2022-12-20T06:43:02;0.82;;;0.60;;
62543;SDS011;48597;49.030;1.822;2022-12-20T06:45:28;0.52;;;0.52;;
62543;SDS011;48597;49.030;1.822;2022-12-20T06:47:53;0.80;;;0.80;;
62543;SDS011;48597;49.030;1.822;2022-12-20T06:50:18;0.70;;;0.60;;
62543;SDS011;48597;49.030;1.822;2022-12-20T06:52:44;0.60;;;0.60;;
62543;SDS011;48597;49.030;1.822;2022-12-20T06:55:09;1.15;;;0.80;;
62543;SDS011;48597;49.030;1.822;2022-12-20T06:57:35;1.15;;;0.80;;
62543;SDS011;48597;49.030;1.822;2022-12-20T07:00:00;0.55;;;0.55;;
62543;SDS011;48597;49.030;1.822;2022-12-20T07:02:26;0.98;;;0.70;;
62543;SDS011;48597;49.030;1.822;2022-12-20T07:04:52;0.70;;;0.68;;
62543;SDS011;48597;49.030;1.822;2022-12-20T07:07:17;0.98;;;0.65;;
62543;SDS011;48597;49.030;1.822;2022-12-20T07:09:42;0.65;;;0.65;;
62543;SDS011;48597;49.030;1.822;2022-12-20T07:12:08;0.68;;;0.68;;
62543;SDS011;48597;49.030;1.822;2022-12-20T07:14:34;0.73;;;0.73;;
62543;SDS011;48597;49.030;1.822;2022-12-20T07:16:59;1.30;;;0.70;;
62543;SDS011;48597;49.030;1.822;2022-12-20T07:19:25;1.40;;;0.88;;
62543;SDS011;48597;49.030;1.822;2022-12-20T07:21:51;0.82;;;0.82;;
62543;SDS011;48597;49.030;1.822;2022-12-20T07:24:17;0.82;;;0.80;;
62543;SDS011;48597;49.030;1.822;2022-12-20T07:26:43;0.70;;;0.70;;
62543;SDS011;48597;49.030;1.822;2022-12-20T07:29:09;0.85;;;0.85;;
62543;SDS011;48597;49.030;1.822;2022-12-20T07:31:35;1.10;;;1.00;;
62543;SDS011;48597;49.030;1.822;2022-12-20T07:34:00;1.90;;;0.95;;
62543;SDS011;48597;49.030;1.822;2022-12-20T07:36:26;1.05;;;1.00;;
62543;SDS011;48597;49.030;1.822;2022-12-20T07:38:51;1.00;;;0.90;;
62543;SDS011;48597;49.030;1.822;2022-12-20T07:41:16;1.00;;;0.90;;
62543;SDS011;48597;49.030;1.822;2022-12-20T07:43:45;1.58;;;1.30;;
62543;SDS011;48597;49.030;1.822;2022-12-20T07:46:14;1.45;;;1.20;;
62543;SDS011;48597;49.030;1.822;2022-12-20T07:48:40;1.50;;;1.40;;
62543;SDS011;48597;49.030;1.822;2022-12-20T07:51:15;1.60;;;1.50;;
62543;SDS011;48597;49.030;1.822;2022-12-20T07:54:08;2.55;;;1.20;;
62543;SDS011;48597;49.030;1.822;2022-12-20T07:56:38;3.55;;;2.80;;
62543;SDS011;48597;49.030;1.822;2022-12-20T07:59:06;6.15;;;3.35;;
62543;SDS011;48597;49.030;1.822;2022-12-20T08:01:36;4.00;;;3.13;;
62543;SDS011;48597;49.030;1.822;2022-12-20T08:04:03;3.33;;;2.88;;
62543;SDS011;48597;49.030;1.822;2022-12-20T08:09:01;4.32;;;3.33;;
62543;SDS011;48597;49.030;1.822;2022-12-20T08:11:28;3.72;;;2.92;;
62543;SDS011;48597;49.030;1.822;2022-12-20T08:13:55;3.65;;;2.80;;
62543;SDS011;48597;49.030;1.822;2022-12-20T08:16:22;4.65;;;2.30;;
62543;SDS011;48597;49.030;1.822;2022-12-20T08:18:47;3.15;;;2.30;;
62543;SDS011;48597;49.030;1.822;2022-12-20T08:21:13;4.25;;;2.20;;
62543;SDS011;48597;49.030;1.822;2022-12-20T08:23:39;2.92;;;2.13;;
62543;SDS011;48597;49.030;1.822;2022-12-20T08:26:05;2.17;;;1.95;;
62543;SDS011;48597;49.030;1.822;2022-12-20T08:28:30;2.17;;;1.80;;
62543;SDS011;48597;49.030;1.822;2022-12-20T08:30:59;2.50;;;2.08;;
62543;SDS011;48597;49.030;1.822;2022-12-20T08:33:25;3.33;;;1.88;;
62543;SDS011;48597;49.030;1.822;2022-12-20T08:36:02;2.55;;;1.90;;
62543;SDS011;48597;49.030;1.822;2022-12-20T08:38:29;2.85;;;1.50;;
62543;SDS011;48597;49.030;1.822;2022-12-20T08:40:55;2.15;;;1.60;;
62543;SDS011;48597;49.030;1.822;2022-12-20T08:43:30;2.90;;;1.60;;
62543;SDS011;48597;49.030;1.822;2022-12-20T08:45:56;3.20;;;1.50;;
62543;SDS011;48597;49.030;1.822;2022-12-20T08:48:21;1.75;;;1.27;;
62543;SDS011;48597;49.030;1.822;2022-12-20T08:50:52;1.83;;;1.48;;
62543;SDS011;48597;49.030;1.822;2022-12-20T08:53:22;2.03;;;1.42;;
62543;SDS011;48597;49.030;1.822;2022-12-20T08:55:47;1.45;;;1.30;;
62543;SDS011;48597;49.030;1.822;2022-12-20T08:58:13;1.40;;;1.23;;
62543;SDS011;48597;49.030;1.822;2022-12-20T09:00:39;2.08;;;1.33;;
62543;SDS011;48597;49.030;1.822;2022-12-20T09:03:05;2.28;;;1.33;;
62543;SDS011;48597;49.030;1.822;2022-12-20T09:05:31;1.60;;;1.25;;
62543;SDS011;48597;49.030;1.822;2022-12-20T09:07:57;2.20;;;1.30;;
62543;SDS011;48597;49.030;1.822;2022-12-20T09:10:22;1.38;;;1.20;;
62543;SDS011;48597;49.030;1.822;2022-12-20T09:12:48;1.38;;;1.08;;
62543;SDS011;48597;49.030;1.822;2022-12-20T09:15:13;1.20;;;1.10;;
62543;SDS011;48597;49.030;1.822;2022-12-20T09:17:39;1.83;;;1.20;;
62543;SDS011;48597;49.030;1.822;2022-12-20T09:20:04;1.45;;;1.20;;
62543;SDS011;48597;49.030;1.822;2022-12-20T09:22:30;1.58;;;1.02;;
62543;SDS011;48597;49.030;1.822;2022-12-20T09:24:55;0.80;;;0.80;;
62543;SDS011;48597;49.030;1.822;2022-12-20T09:27:22;2.67;;;1.00;;
62543;SDS011;48597;49.030;1.822;2022-12-20T09:29:47;1.33;;;1.08;;
62543;SDS011;48597;49.030;1.822;2022-12-20T09:32:12;1.23;;;1.10;;
62543;SDS011;48597;49.030;1.822;2022-12-20T09:34:38;0.93;;;0.93;;
62543;SDS011;48597;49.030;1.822;2022-12-20T09:37:03;1.05;;;0.90;;
62543;SDS011;48597;49.030;1.822;2022-12-20T09:39:29;0.80;;;0.80;;
62543;SDS011;48597;49.030;1.822;2022-12-20T09:41:55;0.98;;;0.85;;
62543;SDS011;48597;49.030;1.822;2022-12-20T09:44:26;1.67;;;1.00;;
62543;SDS011;48597;49.030;1.822;2022-12-20T09:46:55;1.00;;;0.90;;
62543;SDS011;48597;49.030;1.822;2022-12-20T09:49:27;1.40;;;1.00;;
62543;SDS011;48597;49.030;1.822;2022-12-20T10:00:18;1.70;;;1.00;;
62543;SDS011;48597;49.030;1.822;2022-12-20T10:02:46;1.63;;;0.90;;
62543;SDS011;48597;49.030;1.822;2022-12-20T10:05:14;2.15;;;0.90;;
62543;SDS011;48597;49.030;1.822;2022-12-20T10:07:54;1.42;;;0.80;;
62543;SDS011;48597;49.030;1.822;2022-12-20T10:16:04;0.93;;;0.93;;
62543;SDS011;48597;49.030;1.822;2022-12-20T10:25:29;1.88;;;1.00;;
62543;SDS011;48597;49.030;1.822;2022-12-20T10:27:49;1.48;;;0.93;;
62543;SDS011;48597;49.030;1.822;2022-12-20T10:30:18;3.17;;;1.20;;
62543;SDS011;48597;49.030;1.822;2022-12-20T10:32:46;2.03;;;1.10;;
62543;SDS011;48597;49.030;1.822;2022-12-20T10:35:59;2.40;;;1.27;;
62543;SDS011;48597;49.030;1.822;2022-12-20T10:38:08;2.40;;;1.20;;
62543;SDS011;48597;49.030;1.822;2022-12-20T10:41:20;1.33;;;1.13;;
62543;SDS011;48597;49.030;1.822;2022-12-20T10:43:27;2.47;;;1.20;;
62543;SDS011;48597;49.030;1.822;2022-12-20T10:46:07;3.22;;;1.30;;
62543;SDS011;48597;49.030;1.822;2022-12-20T10:48:34;1.67;;;1.13;;
62543;SDS011;48597;49.030;1.822;2022-12-20T10:51:03;3.47;;;1.48;;
62543;SDS011;48597;49.030;1.822;2022-12-20T10:56:56;1.85;;;1.40;;
62543;SDS011;48597;49.030;1.822;2022-12-20T10:59:27;2.50;;;1.90;;
62543;SDS011;48597;49.030;1.822;2022-12-20T11:01:57;3.53;;;1.63;;
62543;SDS011;48597;49.030;1.822;2022-12-20T11:06:52;3.08;;;2.08;;
62543;SDS011;48597;49.030;1.822;2022-12-20T11:14:41;3.10;;;1.67;;
62543;SDS011;48597;49.030;1.822;2022-12-20T11:32:09;1.58;;;1.35;;
62543;SDS011;48597;49.030;1.822;2022-12-20T11:34:20;2.50;;;1.23;;
62543;SDS011;48597;49.030;1.822;2022-12-20T11:37:14;3.13;;;1.50;;
62543;SDS011;48597;49.030;1.822;2022-12-20T11:51:11;3.45;;;1.45;;
62543;SDS011;48597;49.030;1.822;2022-12-20T11:54:00;3.20;;;1.48;;
62543;SDS011;48597;49.030;1.822;2022-12-20T11:56:35;2.08;;;0.98;;
62543;SDS011;48597;49.030;1.822;2022-12-20T11:59:05;1.85;;;1.20;;
62543;SDS011;48597;49.030;1.822;2022-12-20T12:01:42;2.70;;;1.40;;
62543;SDS011;48597;49.030;1.822;2022-12-20T12:07:37;1.75;;;1.30;;
62543;SDS011;48597;49.030;1.822;2022-12-20T12:10:23;1.88;;;1.23;;
62543;SDS011;48597;49.030;1.822;2022-12-20T12:18:37;2.33;;;1.67;;
62543;SDS011;48597;49.030;1.822;2022-12-20T12:21:17;2.10;;;1.25;;
62543;SDS011;48597;49.030;1.822;2022-12-20T12:24:03;2.30;;;1.48;;
62543;SDS011;48597;49.030;1.822;2022-12-20T12:26:38;2.28;;;1.50;;
62543;SDS011;48597;49.030;1.822;2022-12-20T12:47:35;2.15;;;1.50;;
62543;SDS011;48597;49.030;1.822;2022-12-20T12:50:07;2.22;;;1.40;;
62543;SDS011;48597;49.030;1.822;2022-12-20T12:52:44;2.75;;;1.48;;
62543;SDS011;48597;49.030;1.822;2022-12-20T13:03:37;2.03;;;1.38;;
62543;SDS011;48597;49.030;1.822;2022-12-20T13:11:40;1.40;;;1.10;;
62543;SDS011;48597;49.030;1.822;2022-12-20T13:16:53;2.05;;;1.33;;
62543;SDS011;48597;49.030;1.822;2022-12-20T13:19:39;1.83;;;1.30;;
62543;SDS011;48597;49.030;1.822;2022-12-20T13:22:22;2.70;;;1.40;;
62543;SDS011;48597;49.030;1.822;2022-12-20T13:27:25;2.10;;;1.27;;
62543;SDS011;48597;49.030;1.822;2022-12-20T13:29:57;2.17;;;1.23;;
62543;SDS011;48597;49.030;1.822;2022-12-20T13:37:55;2.38;;;1.27;;
62543;SDS011;48597;49.030;1.822;2022-12-20T13:40:42;3.33;;;1.38;;
62543;SDS011;48597;49.030;1.822;2022-12-20T13:43:12;2.65;;;1.20;;
62543;SDS011;48597;49.030;1.822;2022-12-20T13:48:55;1.48;;;1.17;;
62543;SDS011;48597;49.030;1.822;2022-12-20T13:51:28;2.10;;;1.50;;
62543;SDS011;48597;49.030;1.822;2022-12-20T13:53:58;1.30;;;1.20;;
62543;SDS011;48597;49.030;1.822;2022-12-20T13:58:57;1.95;;;1.40;;
62543;SDS011;48597;49.030;1.822;2022-12-20T14:01:27;2.55;;;1.27;;
62543;SDS011;48597;49.030;1.822;2022-12-20T14:03:55;4.75;;;1.50;;
62543;SDS011;48597;49.030;1.822;2022-12-20T14:06:22;1.95;;;1.20;;
62543;SDS011;48597;49.030;1.822;2022-12-20T14:08:50;2.10;;;1.10;;
62543;SDS011;48597;49.030;1.822;2022-12-20T14:11:18;1.92;;;1.10;;
62543;SDS011;48597;49.030;1.822;2022-12-20T14:13:51;2.28;;;1.33;;
62543;SDS011;48597;49.030;1.822;2022-12-20T14:16:19;1.60;;;1.20;;
62543;SDS011;48597;49.030;1.822;2022-12-20T14:18:59;2.88;;;1.45;;
62543;SDS011;48597;49.030;1.822;2022-12-20T14:21:35;1.83;;;1.10;;
62543;SDS011;48597;49.030;1.822;2022-12-20T14:24:04;1.88;;;1.20;;
62543;SDS011;48597;49.030;1.822;2022-12-20T14:26:40;1.23;;;1.00;;
62543;SDS011;48597;49.030;1.822;2022-12-20T14:29:10;1.98;;;1.13;;
62543;SDS011;48597;49.030;1.822;2022-12-20T14:31:40;1.17;;;1.00;;
62543;SDS011;48597;49.030;1.822;2022-12-20T14:36:38;1.60;;;1.10;;
62543;SDS011;48597;49.030;1.822;2022-12-20T14:39:53;1.58;;;1.08;;
62543;SDS011;48597;49.030;1.822;2022-12-20T14:42:21;1.40;;;1.15;;
62543;SDS011;48597;49.030;1.822;2022-12-20T14:44:47;1.35;;;1.00;;
62543;SDS011;48597;49.030;1.822;2022-12-20T14:47:18;2.55;;;1.20;;
62543;SDS011;48597;49.030;1.822;2022-12-20T14:49:58;1.73;;;1.20;;
62543;SDS011;48597;49.030;1.822;2022-12-20T14:52:29;1.25;;;1.15;;
62543;SDS011;48597;49.030;1.822;2022-12-20T15:10:43;2.35;;;1.15;;
62543;SDS011;48597;49.030;1.822;2022-12-20T15:13:36;1.38;;;1.00;;
62543;SDS011;48597;49.030;1.822;2022-12-20T15:16:14;1.58;;;0.95;;
62543;SDS011;48597;49.030;1.822;2022-12-20T15:18:45;2.78;;;1.40;;
62543;SDS011;48597;49.030;1.822;2022-12-20T15:21:13;1.50;;;1.40;;
62543;SDS011;48597;49.030;1.822;2022-12-20T15:23:47;1.73;;;1.27;;
62543;SDS011;48597;49.030;1.822;2022-12-20T15:26:22;2.50;;;1.48;;
62543;SDS011;48597;49.030;1.822;2022-12-20T15:28:49;2.47;;;1.85;;
62543;SDS011;48597;49.030;1.822;2022-12-20T15:31:16;2.03;;;1.67;;
62543;SDS011;48597;49.030;1.822;2022-12-20T15:33:43;1.77;;;1.63;;
62543;SDS011;48597;49.030;1.822;2022-12-20T15:36:14;2.50;;;1.92;;
62543;SDS011;48597;49.030;1.822;2022-12-20T15:38:44;4.57;;;1.90;;
62543;SDS011;48597;49.030;1.822;2022-12-20T15:41:24;2.78;;;2.10;;
62543;SDS011;48597;49.030;1.822;2022-12-20T15:43:56;2.85;;;2.17;;
62543;SDS011;48597;49.030;1.822;2022-12-20T15:46:30;2.63;;;2.30;;
62543;SDS011;48597;49.030;1.822;2022-12-20T15:48:55;2.53;;;1.98;;
62543;SDS011;48597;49.030;1.822;2022-12-20T15:51:29;3.25;;;2.20;;
62543;SDS011;48597;49.030;1.822;2022-12-20T15:53:56;3.85;;;2.10;;
62543;SDS011;48597;49.030;1.822;2022-12-20T15:56:26;3.47;;;2.45;;
62543;SDS011;48597;49.030;1.822;2022-12-20T15:58:52;3.55;;;2.05;;
62543;SDS011;48597;49.030;1.822;2022-12-20T16:01:23;2.20;;;2.00;;
62543;SDS011;48597;49.030;1.822;2022-12-20T16:03:53;2.28;;;2.05;;
62543;SDS011;48597;49.030;1.822;2022-12-20T16:06:23;3.15;;;2.25;;
62543;SDS011;48597;49.030;1.822;2022-12-20T16:08:55;3.22;;;2.25;;
62543;SDS011;48597;49.030;1.822;2022-12-20T16:11:24;2.17;;;1.80;;
62543;SDS011;48597;49.030;1.822;2022-12-20T16:13:53;2.08;;;1.98;;
62543;SDS011;48597;49.030;1.822;2022-12-20T16:16:23;2.58;;;2.10;;
62543;SDS011;48597;49.030;1.822;2022-12-20T16:18:53;2.20;;;2.00;;
62543;SDS011;48597;49.030;1.822;2022-12-20T16:21:21;3.67;;;2.20;;
62543;SDS011;48597;49.030;1.822;2022-12-20T16:23:56;1.88;;;1.60;;
62543;SDS011;48597;49.030;1.822;2022-12-20T16:26:24;2.00;;;1.80;;
62543;SDS011;48597;49.030;1.822;2022-12-20T16:28:52;2.42;;;1.92;;
62543;SDS011;48597;49.030;1.822;2022-12-20T16:31:24;2.65;;;1.60;;
62543;SDS011;48597;49.030;1.822;2022-12-20T16:33:57;2.97;;;1.63;;
62543;SDS011;48597;49.030;1.822;2022-12-20T16:36:26;2.38;;;1.80;;
62543;SDS011;48597;49.030;1.822;2022-12-20T16:38:53;2.10;;;1.65;;
62543;SDS011;48597;49.030;1.822;2022-12-20T16:41:21;2.67;;;1.75;;
62543;SDS011;48597;49.030;1.822;2022-12-20T16:43:49;1.63;;;1.50;;
62543;SDS011;48597;49.030;1.822;2022-12-20T16:46:19;2.30;;;1.70;;
62543;SDS011;48597;49.030;1.822;2022-12-20T16:48:46;1.65;;;1.50;;
62543;SDS011;48597;49.030;1.822;2022-12-20T16:54:12;2.55;;;1.75;;
62543;SDS011;48597;49.030;1.822;2022-12-20T16:56:39;3.15;;;2.13;;
62543;SDS011;48597;49.030;1.822;2022-12-20T16:59:05;3.40;;;2.13;;
62543;SDS011;48597;49.030;1.822;2022-12-20T17:01:34;1.88;;;1.48;;
62543;SDS011;48597;49.030;1.822;2022-12-20T17:04:02;2.38;;;1.55;;
62543;SDS011;48597;49.030;1.822;2022-12-20T17:06:28;1.70;;;1.60;;
62543;SDS011;48597;49.030;1.822;2022-12-20T17:08:53;3.20;;;1.67;;
62543;SDS011;48597;49.030;1.822;2022-12-20T17:11:28;4.03;;;2.00;;
62543;SDS011;48597;49.030;1.822;2022-12-20T17:13:56;4.82;;;1.80;;
62543;SDS011;48597;49.030;1.822;2022-12-20T17:16:23;4.15;;;2.20;;
62543;SDS011;48597;49.030;1.822;2022-12-20T17:18:51;2.92;;;1.90;;
62543;SDS011;48597;49.030;1.822;2022-12-20T17:21:19;4.60;;;1.90;;
62543;SDS011;48597;49.030;1.822;2022-12-20T17:23:52;3.45;;;2.00;;
62543;SDS011;48597;49.030;1.822;2022-12-20T17:26:19;2.65;;;1.80;;
62543;SDS011;48597;49.030;1.822;2022-12-20T17:28:50;7.38;;;2.22;;
62543;SDS011;48597;49.030;1.822;2022-12-20T17:34:03;4.57;;;2.20;;
62543;SDS011;48597;49.030;1.822;2022-12-20T17:36:38;2.90;;;2.10;;
62543;SDS011;48597;49.030;1.822;2022-12-20T17:39:03;3.22;;;1.80;;